»·PEaware :: AAY383 KRDD-KOAK

AAY383 :: KRDD-KOAK

FLIGHT INFORMATION

Flight Status: Arrived
Operator:
Allegiant Air
More flights by this operator :: More flights under this callsign
Pilot: David C. (16084)
Aircraft: AIRBUS A320
(A320)
More flights by this aircraft type
Origin: KRDD Redding Mun
United States
Destination: KOAK Metro Oakland Intl
United States
More flights between these airports :: More routes between these airports
Route: HOMAN3 RBL SPAMY WNDSR2
File this flight plan on PilotEdge
Remarks:
Altitude:
(Current/Filed)
24,000ft
Speed:
(Current/Filed)
464kts
Departed: 26-Aug-20 11:02 AM
Arrived: 26-Aug-20 11:41 AM
Distance/Time
Traveled:
168nm/0:39
Distance/Time
To Go:
Arrived

Flight Plot

Page will automatically refresh every two minutes.

Flight plan parsing failed; only flown route is shown


Map Options




Map Legend


Flown Route
Filed Route
Departure Airport
Arrival Airport
Navaid (VOR, NDB)
Fix

Horizontal Profiles

Position Reports

Time Latitude Longitude Heading Altitude Ground
Speed
26-Aug-20 10:28 40.505816 -122.298984 315 503ft 0kts
26-Aug-20 10:29 40.505816 -122.298984 315 503ft 0kts
26-Aug-20 10:30 40.505816 -122.298984 315 503ft 0kts
26-Aug-20 10:32 40.505816 -122.298984 315 503ft 0kts
26-Aug-20 10:33 40.505816 -122.298984 315 503ft 0kts
26-Aug-20 10:34 40.505816 -122.298984 315 503ft 0kts
26-Aug-20 10:35 40.505816 -122.298984 315 503ft 0kts
26-Aug-20 10:36 40.505816 -122.298984 315 503ft 0kts
26-Aug-20 10:37 40.505816 -122.298984 315 503ft 0kts
26-Aug-20 10:38 40.505816 -122.298984 315 503ft 0kts
26-Aug-20 10:39 40.505816 -122.298984 315 503ft 0kts
26-Aug-20 10:40 40.505816 -122.298984 315 503ft 0kts
26-Aug-20 10:41 40.505816 -122.298984 315 503ft 0kts
26-Aug-20 10:42 40.505816 -122.298984 315 503ft 0kts
26-Aug-20 10:43 40.505816 -122.298984 315 503ft 0kts
26-Aug-20 10:44 40.505816 -122.298984 315 503ft 0kts
26-Aug-20 10:45 40.505816 -122.298984 315 503ft 0kts
26-Aug-20 10:46 40.505816 -122.298984 315 503ft 0kts
26-Aug-20 10:47 40.505816 -122.298984 315 503ft 0kts
26-Aug-20 10:48 40.505816 -122.298984 315 503ft 0kts
26-Aug-20 10:48 40.505816 -122.298984 315 503ft 0kts
26-Aug-20 10:50 40.505816 -122.298984 315 503ft 0kts
26-Aug-20 10:50 40.505532 -122.298694 330 503ft 0kts
26-Aug-20 10:52 40.505533 -122.298694 330 503ft 0kts
26-Aug-20 10:52 40.505533 -122.298694 330 503ft 0kts
26-Aug-20 10:53 40.505533 -122.298694 330 503ft 0kts
26-Aug-20 10:54 40.505533 -122.298694 330 503ft 0kts
26-Aug-20 10:55 40.505629 -122.298754 337 503ft 2kts
26-Aug-20 10:56 40.508816 -122.296644 40 503ft 20kts
26-Aug-20 10:57 40.515159 -122.296265 359 510ft 25kts
26-Aug-20 10:58 40.520121 -122.296074 45 513ft 0kts
26-Aug-20 10:59 40.520121 -122.296074 45 513ft 0kts
26-Aug-20 11:00 40.519876 -122.294850 178 512ft 0kts
26-Aug-20 11:01 40.485013 -122.293439 164 1576ft 192kts
26-Aug-20 11:02 40.456824 -122.227589 125 4307ft 244kts
26-Aug-20 11:03 40.411565 -122.147896 147 7291ft 287kts
26-Aug-20 11:04 40.334130 -122.154441 195 10576ft 302kts
26-Aug-20 11:05 40.247267 -122.184690 195 13407ft 328kts
26-Aug-20 11:06 40.157865 -122.215829 195 16382ft 336kts
26-Aug-20 11:07 40.066549 -122.249341 197 19004ft 344kts
26-Aug-20 11:08 39.973870 -122.286348 197 21322ft 352kts
26-Aug-20 11:09 39.880117 -122.323675 197 23369ft 360kts
26-Aug-20 11:10 39.779328 -122.363750 197 23890ft 403kts
26-Aug-20 11:11 39.666088 -122.408602 197 23888ft 443kts
26-Aug-20 11:12 39.546834 -122.455547 197 23892ft 449kts
26-Aug-20 11:13 39.426926 -122.502617 197 23892ft 449kts
26-Aug-20 11:14 39.307298 -122.549447 197 23892ft 449kts
26-Aug-20 11:15 39.185542 -122.586575 183 23893ft 452kts
26-Aug-20 11:16 39.061088 -122.571273 175 23800ft 440kts
26-Aug-20 11:17 38.949803 -122.545411 173 22190ft 381kts
26-Aug-20 11:18 38.857397 -122.522357 173 20867ft 358kts
26-Aug-20 11:19 38.756944 -122.497466 173 19727ft 376kts
26-Aug-20 11:20 38.653977 -122.474466 177 18305ft 370kts
26-Aug-20 11:21 38.553082 -122.459056 176 16306ft 360kts
26-Aug-20 11:22 38.454936 -122.444105 175 14356ft 351kts
26-Aug-20 11:23 38.358953 -122.429534 174 12441ft 342kts
26-Aug-20 11:24 38.265974 -122.415453 174 10596ft 332kts
26-Aug-20 11:25 38.178852 -122.402090 174 9676ft 293kts
26-Aug-20 11:26 38.099373 -122.389960 174 8343ft 284kts
26-Aug-20 11:27 38.021849 -122.376625 159 7032ft 277kts
26-Aug-20 11:28 37.959274 -122.319901 143 6469ft 278kts
26-Aug-20 11:29 37.899167 -122.262517 144 5952ft 278kts
26-Aug-20 11:30 37.837540 -122.203842 143 5432ft 276kts
26-Aug-20 11:31 37.777957 -122.142677 127 5010ft 277kts
26-Aug-20 11:32 37.735039 -122.072922 128 4994ft 227kts
26-Aug-20 11:33 37.698347 -122.013328 128 4784ft 213kts
26-Aug-20 11:34 37.647527 -121.987840 197 4064ft 205kts
26-Aug-20 11:35 37.614471 -122.037217 265 3161ft 181kts
26-Aug-20 11:36 37.626537 -122.097413 298 1989ft 177kts
26-Aug-20 11:37 37.654947 -122.143790 309 1429ft 146kts
26-Aug-20 11:38 37.678949 -122.180138 309 725ft 132kts
26-Aug-20 11:39 37.702342 -122.215534 309 29ft 128kts
26-Aug-20 11:40 37.713657 -122.231138 342 15ft 20kts
26-Aug-20 11:41 37.712942 -122.227708 129 16ft 22kts
26-Aug-20 11:42 37.712808 -122.221810 132 17ft 22kts
26-Aug-20 11:43 37.710987 -122.216847 114 17ft 13kts
26-Aug-20 11:44 37.710921 -122.216661 114 17ft 0kts

Navigation Log

Ident Type
Flight plan parsing failed, navigation log unavailable